Time;durP1;ratioP1;P1;durP2;ratioP2;P2;SDS_P1;SDS_P2;PMS_P1;PMS_P2;Temp;Humidity;BMP_temperature;BMP_pressure;BME280_temperature;BME280_humidity;BME280_pressure;Samples;Min_cycle;Max_cycle;Signal;HPM_P1;HPM_P2
2023/05/16 00:02:02;;;;;;;4.05;3.55;;;;;;;;;;4979902;28;20569;-64
2023/05/16 00:04:27;;;;;;;5.43;3.58;;;;;;;;;;4980892;28;20042;-63
2023/05/16 00:06:53;;;;;;;4.25;3.60;;;;;;;;;;4978801;28;20293;-64
2023/05/16 00:09:19;;;;;;;4.38;3.65;;;;;;;;;;4982690;28;20051;-62
2023/05/16 00:11:45;;;;;;;5.28;2.92;;;;;;;;;;4984049;28;20042;-63
2023/05/16 00:14:11;;;;;;;2.70;2.50;;;;;;;;;;4980848;28;20043;-63
2023/05/16 00:16:36;;;;;;;2.97;2.67;;;;;;;;;;4981458;28;20042;-63
2023/05/16 00:19:03;;;;;;;2.60;2.42;;;;;;;;;;4982418;28;20348;-63
2023/05/16 00:21:28;;;;;;;2.50;2.30;;;;;;;;;;4979180;28;20038;-63
2023/05/16 00:23:54;;;;;;;3.63;2.40;;;;;;;;;;4980130;28;20041;-63
2023/05/16 00:26:19;;;;;;;3.58;2.35;;;;;;;;;;4982731;28;20560;-62
2023/05/16 00:28:45;;;;;;;3.85;3.42;;;;;;;;;;4981802;28;20043;-63
2023/05/16 00:31:10;;;;;;;2.63;2.42;;;;;;;;;;4984084;28;20480;-63
2023/05/16 00:33:36;;;;;;;5.25;2.33;;;;;;;;;;4978141;28;20112;-64
2023/05/16 00:36:01;;;;;;;2.50;2.30;;;;;;;;;;4966186;28;20037;-63
2023/05/16 00:38:27;;;;;;;3.00;2.78;;;;;;;;;;4981452;28;20042;-63
2023/05/16 00:40:52;;;;;;;2.70;2.50;;;;;;;;;;4980938;28;20504;-63
2023/05/16 00:43:18;;;;;;;2.50;2.20;;;;;;;;;;4979435;28;20513;-64
2023/05/16 00:45:44;;;;;;;4.00;2.17;;;;;;;;;;4981109;28;20402;-63
2023/05/16 00:48:11;;;;;;;4.07;2.35;;;;;;;;;;4982322;28;20062;-63
2023/05/16 00:50:36;;;;;;;2.70;2.00;;;;;;;;;;4982641;28;20037;-63
2023/05/16 00:53:02;;;;;;;2.75;2.55;;;;;;;;;;4980210;28;20034;-63
2023/05/16 00:55:28;;;;;;;2.50;1.98;;;;;;;;;;4984619;28;20090;-64
2023/05/16 00:57:54;;;;;;;2.97;2.72;;;;;;;;;;4981757;28;20033;-63
2023/05/16 01:00:19;;;;;;;2.85;2.50;;;;;;;;;;4977753;28;20097;-62
2023/05/16 01:02:46;;;;;;;2.90;2.70;;;;;;;;;;4979334;28;20132;-64
2023/05/16 01:05:11;;;;;;;2.60;2.40;;;;;;;;;;4980315;28;20114;-60
2023/05/16 01:07:39;;;;;;;3.10;2.50;;;;;;;;;;4982253;28;20812;-64
2023/05/16 01:10:06;;;;;;;8.63;2.60;;;;;;;;;;4980409;28;20034;-64
2023/05/16 01:12:52;;;;;;;2.55;2.35;;;;;;;;;;4979878;28;20051;-63
2023/05/16 01:15:24;;;;;;;2.78;2.58;;;;;;;;;;4979185;28;20045;-64
2023/05/16 01:17:50;;;;;;;3.03;2.08;;;;;;;;;;4980884;28;20108;-65
2023/05/16 01:20:36;;;;;;;2.47;2.20;;;;;;;;;;4978713;28;20034;-63
2023/05/16 01:23:20;;;;;;;2.50;2.30;;;;;;;;;;4978581;28;20088;-63
2023/05/16 01:25:56;;;;;;;2.45;2.25;;;;;;;;;;4977710;28;20682;-63
2023/05/16 01:28:21;;;;;;;2.38;2.17;;;;;;;;;;4980974;28;20034;-62
2023/05/16 01:30:50;;;;;;;2.88;2.00;;;;;;;;;;4981332;28;20074;-63
2023/05/16 01:33:16;;;;;;;3.42;2.50;;;;;;;;;;4978630;28;20503;-61
2023/05/16 01:35:51;;;;;;;2.65;2.45;;;;;;;;;;4978878;28;20042;-62
2023/05/16 01:38:16;;;;;;;;;;;;;;;;;;4981578;28;20035;-63
2023/05/16 01:40:50;;;;;;;2.50;2.40;;;;;;;;;;4984755;28;19910;-63
2023/05/16 01:43:18;;;;;;;2.27;2.17;;;;;;;;;;4979749;28;20137;-62
2023/05/16 01:45:49;;;;;;;2.88;2.67;;;;;;;;;;4979241;28;20042;-63
2023/05/16 01:48:26;;;;;;;2.38;2.17;;;;;;;;;;4983349;28;20509;-63
2023/05/16 01:50:54;;;;;;;2.50;2.30;;;;;;;;;;4983210;28;20029;-63
2023/05/16 01:53:25;;;;;;;2.70;2.50;;;;;;;;;;4981996;28;20034;-64
2023/05/16 01:55:51;;;;;;;2.65;2.45;;;;;;;;;;4982132;28;20474;-64
2023/05/16 01:58:19;;;;;;;2.53;2.33;;;;;;;;;;4979616;28;20197;-64
2023/05/16 02:00:45;;;;;;;2.75;2.33;;;;;;;;;;4981415;28;20362;-63
2023/05/16 02:03:10;;;;;;;2.63;2.42;;;;;;;;;;4983681;28;20049;-64
2023/05/16 02:05:36;;;;;;;2.53;2.35;;;;;;;;;;4982158;28;20068;-64
2023/05/16 02:08:02;;;;;;;3.90;1.95;;;;;;;;;;4984069;28;20113;-64
2023/05/16 02:10:28;;;;;;;2.60;2.40;;;;;;;;;;4983515;28;20042;-64
2023/05/16 02:12:53;;;;;;;2.67;2.38;;;;;;;;;;4982386;28;20532;-65
2023/05/16 02:15:20;;;;;;;2.70;2.50;;;;;;;;;;4982621;28;20042;-63
2023/05/16 02:17:46;;;;;;;3.17;2.60;;;;;;;;;;4983258;28;20184;-64
2023/05/16 02:20:11;;;;;;;2.65;2.45;;;;;;;;;;4981297;28;20039;-62
2023/05/16 02:22:38;;;;;;;3.78;2.83;;;;;;;;;;4983682;28;20038;-61
2023/05/16 02:25:04;;;;;;;2.78;2.58;;;;;;;;;;4969510;28;20511;-60
2023/05/16 02:27:29;;;;;;;2.97;2.55;;;;;;;;;;4982565;28;20050;-60
2023/05/16 02:29:54;;;;;;;3.25;2.38;;;;;;;;;;4983878;28;20030;-61
2023/05/16 02:32:23;;;;;;;2.65;2.45;;;;;;;;;;4984109;28;20129;-60
2023/05/16 02:34:50;;;;;;;2.58;2.38;;;;;;;;;;4994429;28;20042;-60
2023/05/16 02:37:16;;;;;;;3.42;2.42;;;;;;;;;;4984148;28;20030;-60
2023/05/16 02:39:41;;;;;;;2.35;2.17;;;;;;;;;;4982654;28;20070;-61
2023/05/16 02:42:08;;;;;;;2.97;2.78;;;;;;;;;;4981923;28;20470;-61
2023/05/16 02:44:34;;;;;;;2.60;2.40;;;;;;;;;;4981542;28;20068;-61
2023/05/16 02:46:59;;;;;;;2.78;2.45;;;;;;;;;;4981839;28;20409;-61
2023/05/16 02:49:25;;;;;;;3.20;2.33;;;;;;;;;;4981381;28;20516;-61
2023/05/16 02:51:50;;;;;;;2.63;2.42;;;;;;;;;;4982203;28;20482;-61
2023/05/16 02:54:16;;;;;;;2.22;2.13;;;;;;;;;;4980329;28;20052;-60
2023/05/16 02:56:42;;;;;;;2.30;2.10;;;;;;;;;;4983036;28;20621;-62
2023/05/16 02:59:07;;;;;;;3.15;2.30;;;;;;;;;;4977730;28;20026;-61
2023/05/16 03:01:33;;;;;;;2.53;1.92;;;;;;;;;;4981494;28;20060;-61
2023/05/16 03:03:58;;;;;;;3.38;1.95;;;;;;;;;;4982133;28;20103;-61
2023/05/16 03:06:24;;;;;;;2.50;2.30;;;;;;;;;;4981831;28;20034;-61
2023/05/16 03:08:50;;;;;;;3.10;2.40;;;;;;;;;;4980819;28;20494;-61
2023/05/16 03:11:19;;;;;;;2.33;2.13;;;;;;;;;;4985721;28;20039;-61
2023/05/16 03:13:45;;;;;;;2.58;2.38;;;;;;;;;;4980010;28;20037;-62
2023/05/16 03:16:10;;;;;;;4.18;2.55;;;;;;;;;;4985721;28;20085;-60
2023/05/16 03:18:35;;;;;;;2.55;2.35;;;;;;;;;;4980730;28;20078;-59
2023/05/16 03:21:01;;;;;;;2.40;2.30;;;;;;;;;;4978977;28;20603;-60
2023/05/16 03:23:27;;;;;;;2.90;2.65;;;;;;;;;;4979807;28;20046;-60
2023/05/16 03:25:55;;;;;;;2.70;2.50;;;;;;;;;;4971076;28;20429;-64
2023/05/16 03:28:20;;;;;;;4.72;2.65;;;;;;;;;;4987770;28;20068;-60
2023/05/16 03:30:46;;;;;;;2.65;2.45;;;;;;;;;;4994145;28;20513;-62
2023/05/16 03:33:12;;;;;;;3.15;2.85;;;;;;;;;;4977640;28;20509;-61
2023/05/16 03:35:38;;;;;;;4.18;2.83;;;;;;;;;;4984058;28;20151;-61
2023/05/16 03:38:03;;;;;;;3.35;3.15;;;;;;;;;;4980603;28;20470;-62
2023/05/16 03:40:29;;;;;;;2.40;2.20;;;;;;;;;;4979187;28;20930;-62
2023/05/16 03:42:54;;;;;;;2.90;2.60;;;;;;;;;;4979697;28;20083;-60
2023/05/16 03:45:20;;;;;;;3.03;2.83;;;;;;;;;;4980507;28;20053;-61
2023/05/16 03:47:47;;;;;;;3.00;2.80;;;;;;;;;;4979637;28;20134;-61
2023/05/16 03:50:13;;;;;;;2.40;2.20;;;;;;;;;;4979608;28;20022;-62
2023/05/16 03:52:38;;;;;;;2.60;2.40;;;;;;;;;;4979993;28;20035;-61
2023/05/16 03:55:04;;;;;;;2.33;2.17;;;;;;;;;;4976622;28;20358;-61
2023/05/16 03:57:31;;;;;;;2.67;2.47;;;;;;;;;;4978809;28;20124;-62
2023/05/16 03:59:56;;;;;;;2.80;2.60;;;;;;;;;;4980564;28;20050;-63
2023/05/16 04:02:22;;;;;;;3.08;2.78;;;;;;;;;;4979466;28;20616;-60
2023/05/16 04:04:48;;;;;;;2.35;2.13;;;;;;;;;;4976303;28;20410;-59
2023/05/16 04:07:13;;;;;;;2.60;2.40;;;;;;;;;;4980048;28;20383;-60
2023/05/16 04:09:38;;;;;;;2.85;2.65;;;;;;;;;;4979279;28;20444;-60
2023/05/16 04:12:04;;;;;;;3.40;2.60;;;;;;;;;;4983003;28;20038;-59
2023/05/16 04:14:30;;;;;;;2.47;2.28;;;;;;;;;;4980247;28;20392;-60
2023/05/16 04:16:56;;;;;;;2.53;2.33;;;;;;;;;;4978655;28;20346;-61
2023/05/16 04:19:21;;;;;;;2.88;2.67;;;;;;;;;;4979796;28;20477;-60
2023/05/16 04:21:47;;;;;;;3.72;2.90;;;;;;;;;;4978546;28;20439;-60
2023/05/16 04:24:12;;;;;;;2.85;2.65;;;;;;;;;;4981012;28;20057;-60
2023/05/16 04:26:38;;;;;;;3.00;2.80;;;;;;;;;;4979004;28;20034;-64
2023/05/16 04:29:03;;;;;;;2.70;2.50;;;;;;;;;;4984066;28;20085;-59
2023/05/16 04:31:30;;;;;;;2.35;2.15;;;;;;;;;;4980025;28;20090;-60
2023/05/16 04:33:56;;;;;;;2.80;2.60;;;;;;;;;;4979706;28;20075;-61
2023/05/16 04:36:22;;;;;;;4.95;2.50;;;;;;;;;;4980263;28;20038;-61
2023/05/16 04:38:48;;;;;;;2.88;2.63;;;;;;;;;;4981251;28;20042;-61
2023/05/16 04:41:13;;;;;;;3.60;2.90;;;;;;;;;;4981053;28;20066;-60
2023/05/16 04:43:39;;;;;;;2.53;2.33;;;;;;;;;;4986907;28;20034;-60
2023/05/16 04:46:06;;;;;;;2.63;2.42;;;;;;;;;;4981381;28;20050;-60
2023/05/16 04:48:32;;;;;;;3.65;2.80;;;;;;;;;;4978695;28;20121;-59
2023/05/16 04:50:57;;;;;;;2.70;2.50;;;;;;;;;;4979892;28;20577;-60
2023/05/16 04:53:22;;;;;;;2.97;2.53;;;;;;;;;;4977684;28;20033;-60
2023/05/16 04:55:48;;;;;;;2.75;2.55;;;;;;;;;;4979817;28;20081;-60
2023/05/16 04:58:13;;;;;;;3.22;2.92;;;;;;;;;;4979351;28;20100;-60
2023/05/16 05:00:39;;;;;;;2.92;2.63;;;;;;;;;;4978890;28;20042;-62
2023/05/16 05:03:04;;;;;;;3.72;2.40;;;;;;;;;;4979584;28;20022;-60
2023/05/16 05:05:30;;;;;;;5.55;3.25;;;;;;;;;;4980331;28;20047;-65
2023/05/16 05:07:57;;;;;;;3.22;2.92;;;;;;;;;;4979646;28;20241;-67
2023/05/16 05:10:22;;;;;;;2.40;2.22;;;;;;;;;;4980990;28;20120;-65
2023/05/16 05:12:47;;;;;;;3.70;2.63;;;;;;;;;;4979977;28;20504;-62
2023/05/16 05:15:13;;;;;;;3.00;2.75;;;;;;;;;;4976062;28;20042;-62
2023/05/16 05:17:38;;;;;;;4.10;3.25;;;;;;;;;;4981248;28;20069;-63
2023/05/16 05:20:07;;;;;;;2.92;2.67;;;;;;;;;;4977328;28;20034;-62
2023/05/16 05:22:33;;;;;;;3.50;3.20;;;;;;;;;;4983454;28;20627;-60
2023/05/16 05:24:58;;;;;;;3.50;3.20;;;;;;;;;;4985166;28;20504;-62
2023/05/16 05:27:24;;;;;;;3.65;2.97;;;;;;;;;;4981485;28;20023;-61
2023/05/16 05:29:49;;;;;;;6.50;2.90;;;;;;;;;;4979672;28;20042;-62
2023/05/16 05:32:15;;;;;;;3.47;2.63;;;;;;;;;;4983783;28;20034;-62
2023/05/16 05:34:40;;;;;;;2.97;2.67;;;;;;;;;;4980770;28;20077;-62
2023/05/16 05:37:06;;;;;;;2.88;2.67;;;;;;;;;;4983625;28;20469;-62
2023/05/16 05:39:31;;;;;;;2.63;2.53;;;;;;;;;;4982649;28;20524;-61
2023/05/16 05:41:57;;;;;;;3.45;3.15;;;;;;;;;;4981432;28;20058;-62
2023/05/16 05:44:23;;;;;;;3.38;3.00;;;;;;;;;;4983815;28;20161;-62
2023/05/16 05:46:48;;;;;;;3.13;2.50;;;;;;;;;;4981236;28;20141;-62
2023/05/16 05:49:14;;;;;;;3.25;3.00;;;;;;;;;;4982127;28;20037;-61
2023/05/16 05:51:40;;;;;;;3.42;3.13;;;;;;;;;;4983398;28;20579;-62
2023/05/16 05:54:05;;;;;;;5.75;3.42;;;;;;;;;;4984178;28;20041;-60
2023/05/16 05:56:31;;;;;;;2.95;2.60;;;;;;;;;;4982436;28;20042;-62
2023/05/16 05:58:56;;;;;;;3.40;3.10;;;;;;;;;;4981989;28;20093;-66
2023/05/16 06:01:23;;;;;;;3.35;3.05;;;;;;;;;;4983931;28;20463;-70
2023/05/16 06:03:48;;;;;;;3.92;3.40;;;;;;;;;;4996348;28;20033;-66
2023/05/16 06:06:14;;;;;;;3.15;2.92;;;;;;;;;;4981540;28;20033;-65
2023/05/16 06:08:40;;;;;;;3.53;3.33;;;;;;;;;;4983334;28;20473;-65
2023/05/16 06:11:05;;;;;;;2.83;2.63;;;;;;;;;;4983446;28;20023;-66
2023/05/16 06:13:31;;;;;;;3.20;3.00;;;;;;;;;;4982728;28;20033;-64
2023/05/16 06:15:56;;;;;;;4.18;3.65;;;;;;;;;;4981977;28;20549;-65
2023/05/16 06:18:22;;;;;;;5.10;3.75;;;;;;;;;;4982746;28;20058;-64
2023/05/16 06:20:47;;;;;;;4.20;3.60;;;;;;;;;;4982436;28;20038;-65
2023/05/16 06:23:13;;;;;;;3.55;3.25;;;;;;;;;;4987316;28;20049;-68
2023/05/16 06:25:38;;;;;;;4.05;3.65;;;;;;;;;;4980559;28;20489;-68
2023/05/16 06:28:04;;;;;;;3.63;3.33;;;;;;;;;;4983457;28;20096;-68
2023/05/16 06:30:29;;;;;;;3.83;3.45;;;;;;;;;;4983056;28;20490;-67
2023/05/16 06:32:55;;;;;;;6.80;4.53;;;;;;;;;;4979096;28;20045;-68
2023/05/16 06:35:20;;;;;;;3.90;3.60;;;;;;;;;;4983170;28;20035;-69
2023/05/16 06:37:46;;;;;;;3.33;3.13;;;;;;;;;;4985225;28;20025;-67
2023/05/16 06:40:11;;;;;;;3.90;3.60;;;;;;;;;;4982858;28;20556;-69
2023/05/16 06:42:37;;;;;;;5.65;3.78;;;;;;;;;;4984328;28;20568;-67
2023/05/16 06:45:04;;;;;;;4.93;4.60;;;;;;;;;;4998153;28;20045;-69
2023/05/16 06:47:29;;;;;;;4.40;4.00;;;;;;;;;;4983004;28;20103;-66
2023/05/16 06:49:55;;;;;;;4.07;3.67;;;;;;;;;;4983271;28;20030;-67
2023/05/16 06:52:20;;;;;;;3.45;3.25;;;;;;;;;;4982158;28;20129;-67
2023/05/16 06:54:46;;;;;;;4.28;3.88;;;;;;;;;;4979301;28;20046;-66
2023/05/16 06:57:12;;;;;;;5.97;3.80;;;;;;;;;;4986923;28;20450;-67
2023/05/16 06:59:37;;;;;;;4.22;3.92;;;;;;;;;;4980874;28;20501;-66
2023/05/16 07:02:03;;;;;;;3.80;3.50;;;;;;;;;;4980868;28;20047;-66
2023/05/16 07:04:28;;;;;;;3.97;3.67;;;;;;;;;;4978721;28;20045;-66
2023/05/16 07:06:54;;;;;;;3.65;3.42;;;;;;;;;;4979385;28;20478;-68
2023/05/16 07:09:20;;;;;;;4.15;3.33;;;;;;;;;;4980490;28;20046;-68
2023/05/16 07:11:45;;;;;;;4.03;3.63;;;;;;;;;;4981184;28;20571;-67
2023/05/16 07:14:11;;;;;;;3.85;3.58;;;;;;;;;;4982737;28;20746;-67
2023/05/16 07:16:36;;;;;;;3.95;3.65;;;;;;;;;;4985906;28;20031;-67
2023/05/16 07:19:02;;;;;;;4.40;3.78;;;;;;;;;;4983529;28;20054;-68
2023/05/16 07:21:28;;;;;;;4.40;4.00;;;;;;;;;;4983135;28;20571;-67
2023/05/16 07:23:53;;;;;;;4.50;4.05;;;;;;;;;;4980613;28;20188;-66
2023/05/16 07:26:21;;;;;;;4.97;4.45;;;;;;;;;;4981026;28;20622;-67
2023/05/16 07:28:48;;;;;;;4.78;3.80;;;;;;;;;;4982606;28;20070;-65
2023/05/16 07:31:13;;;;;;;6.55;4.05;;;;;;;;;;4979358;28;20509;-66
2023/05/16 07:33:39;;;;;;;4.75;4.35;;;;;;;;;;4980768;28;20025;-66
2023/05/16 07:36:04;;;;;;;5.25;4.82;;;;;;;;;;4978572;28;20043;-67
2023/05/16 07:38:30;;;;;;;4.70;3.53;;;;;;;;;;4980327;28;20606;-65
2023/05/16 07:40:55;;;;;;;5.63;4.13;;;;;;;;;;4977523;28;20043;-68
2023/05/16 07:43:21;;;;;;;4.30;3.97;;;;;;;;;;4978765;28;20049;-67
2023/05/16 07:45:46;;;;;;;4.30;4.00;;;;;;;;;;4980456;28;20107;-68
2023/05/16 07:48:12;;;;;;;4.75;4.10;;;;;;;;;;4979804;28;20041;-68
2023/05/16 07:50:37;;;;;;;5.03;3.95;;;;;;;;;;4980124;28;20419;-68
2023/05/16 07:53:03;;;;;;;5.88;4.72;;;;;;;;;;4979289;28;20714;-68
2023/05/16 07:55:28;;;;;;;4.22;3.83;;;;;;;;;;4979906;28;20133;-69
2023/05/16 07:57:54;;;;;;;7.10;4.35;;;;;;;;;;4979700;28;20037;-68
2023/05/16 08:00:20;;;;;;;5.50;4.30;;;;;;;;;;4982250;28;20030;-62
2023/05/16 08:02:45;;;;;;;5.45;4.43;;;;;;;;;;4982521;28;20540;-64
2023/05/16 08:05:11;;;;;;;4.72;4.32;;;;;;;;;;4980325;28;20042;-64
2023/05/16 08:07:36;;;;;;;5.57;5.03;;;;;;;;;;4979812;28;20133;-63
2023/05/16 08:10:02;;;;;;;9.45;5.63;;;;;;;;;;4981438;28;20050;-63
2023/05/16 08:12:29;;;;;;;5.90;5.28;;;;;;;;;;4979753;28;20549;-63
2023/05/16 08:14:55;;;;;;;5.70;5.05;;;;;;;;;;4980450;28;20109;-63
2023/05/16 08:17:20;;;;;;;6.53;5.57;;;;;;;;;;4978528;28;20054;-64
2023/05/16 08:19:45;;;;;;;9.82;7.82;;;;;;;;;;4978905;28;20047;-64
2023/05/16 08:22:11;;;;;;;23.75;14.90;;;;;;;;;;4981159;28;20562;-62
2023/05/16 08:24:36;;;;;;;20.52;13.68;;;;;;;;;;4979185;28;20153;-64
2023/05/16 08:27:02;;;;;;;18.25;12.60;;;;;;;;;;4982711;28;20533;-61
2023/05/16 08:29:27;;;;;;;10.65;7.78;;;;;;;;;;4981878;28;20525;-61
2023/05/16 08:31:52;;;;;;;13.35;9.10;;;;;;;;;;4980689;28;20446;-61
2023/05/16 08:34:18;;;;;;;8.13;7.10;;;;;;;;;;4978128;28;20230;-62
2023/05/16 08:36:43;;;;;;;17.63;12.80;;;;;;;;;;4981431;28;20052;-62
2023/05/16 08:39:12;;;;;;;13.68;10.65;;;;;;;;;;4977553;28;20298;-63
2023/05/16 08:41:38;;;;;;;10.73;8.68;;;;;;;;;;4980364;28;20037;-62
2023/05/16 08:44:03;;;;;;;13.27;8.90;;;;;;;;;;4981171;28;20044;-62
2023/05/16 08:46:30;;;;;;;12.38;10.32;;;;;;;;;;4985112;28;20552;-61
2023/05/16 08:48:58;;;;;;;11.70;8.70;;;;;;;;;;4994212;28;20117;-62
2023/05/16 08:51:24;;;;;;;9.95;7.88;;;;;;;;;;4979125;28;20030;-63
2023/05/16 08:53:54;;;;;;;13.65;10.75;;;;;;;;;;4979301;28;20043;-62
2023/05/16 08:56:21;;;;;;;12.00;10.80;;;;;;;;;;4980536;28;20105;-61
2023/05/16 08:58:46;;;;;;;13.13;9.18;;;;;;;;;;4984139;28;20575;-63
2023/05/16 09:01:12;;;;;;;11.82;9.68;;;;;;;;;;4983935;28;20031;-63
2023/05/16 09:03:37;;;;;;;12.60;8.95;;;;;;;;;;4988701;28;20045;-60
2023/05/16 09:06:04;;;;;;;14.30;9.73;;;;;;;;;;4980445;28;20473;-62
2023/05/16 09:08:30;;;;;;;13.75;10.77;;;;;;;;;;4982903;28;20040;-61
2023/05/16 09:10:55;;;;;;;13.02;10.55;;;;;;;;;;4982414;28;20026;-63
2023/05/16 09:13:21;;;;;;;23.08;16.20;;;;;;;;;;4987725;28;20419;-62
2023/05/16 09:16:06;;;;;;;22.13;16.27;;;;;;;;;;4981972;28;20042;-63
2023/05/16 09:18:32;;;;;;;19.85;13.57;;;;;;;;;;4983507;28;20050;-61
2023/05/16 09:20:58;;;;;;;10.43;8.95;;;;;;;;;;4985615;28;20048;-62
2023/05/16 09:23:24;;;;;;;12.77;9.63;;;;;;;;;;4981955;28;20037;-61
2023/05/16 09:25:51;;;;;;;12.35;9.77;;;;;;;;;;4982862;28;20038;-62
2023/05/16 09:28:17;;;;;;;9.05;7.82;;;;;;;;;;4984816;28;20149;-62
2023/05/16 09:30:44;;;;;;;10.98;8.23;;;;;;;;;;4983920;28;21118;-62
2023/05/16 09:33:10;;;;;;;10.07;9.00;;;;;;;;;;4984596;28;20038;-64
2023/05/16 09:35:36;;;;;;;15.50;11.45;;;;;;;;;;4983585;28;20037;-62
2023/05/16 09:38:01;;;;;;;16.33;11.73;;;;;;;;;;4984680;28;20034;-61
2023/05/16 09:40:27;;;;;;;9.70;8.70;;;;;;;;;;4984535;28;20141;-60
2023/05/16 09:43:05;;;;;;;11.43;9.13;;;;;;;;;;4984847;28;20038;-62
2023/05/16 09:45:32;;;;;;;8.77;7.88;;;;;;;;;;4983793;28;20155;-61
2023/05/16 09:48:05;;;;;;;9.60;8.57;;;;;;;;;;4983208;28;20037;-60
2023/05/16 09:50:32;;;;;;;13.90;10.48;;;;;;;;;;4984606;28;20038;-61
2023/05/16 09:52:57;;;;;;;15.45;12.40;;;;;;;;;;4983065;28;20486;-61
2023/05/16 09:55:23;;;;;;;12.75;10.00;;;;;;;;;;4983342;28;20046;-62
2023/05/16 09:57:48;;;;;;;11.80;9.00;;;;;;;;;;4985543;28;20031;-62
2023/05/16 10:00:14;;;;;;;12.05;8.48;;;;;;;;;;4982809;28;20081;-60
2023/05/16 10:02:39;;;;;;;21.25;14.40;;;;;;;;;;4981706;28;20046;-62
2023/05/16 10:05:05;;;;;;;11.75;8.57;;;;;;;;;;4984125;28;20111;-63
2023/05/16 10:07:34;;;;;;;14.70;9.48;;;;;;;;;;4981216;28;20269;-62
2023/05/16 10:10:04;;;;;;;9.98;8.75;;;;;;;;;;4980112;28;20097;-64
2023/05/16 10:12:33;;;;;;;10.15;8.45;;;;;;;;;;4982176;28;20042;-63
2023/05/16 10:15:01;;;;;;;9.05;8.00;;;;;;;;;;4983807;28;20033;-62
2023/05/16 10:17:30;;;;;;;8.35;7.45;;;;;;;;;;4982947;28;20220;-63
2023/05/16 10:19:56;;;;;;;8.20;7.15;;;;;;;;;;4981370;28;20042;-63
2023/05/16 10:22:22;;;;;;;7.53;6.75;;;;;;;;;;4985203;28;20042;-63
2023/05/16 10:24:55;;;;;;;8.02;7.25;;;;;;;;;;4981887;28;20042;-63
2023/05/16 10:27:21;;;;;;;8.38;6.95;;;;;;;;;;4982985;28;20034;-63
2023/05/16 10:29:48;;;;;;;8.75;7.05;;;;;;;;;;4981992;28;20071;-63
2023/05/16 10:32:14;;;;;;;10.15;7.18;;;;;;;;;;4980056;28;20030;-64
2023/05/16 10:34:40;;;;;;;8.52;7.65;;;;;;;;;;4982315;28;20502;-59
2023/05/16 10:37:06;;;;;;;11.48;8.18;;;;;;;;;;4982853;28;20046;-61
2023/05/16 10:39:32;;;;;;;8.93;7.97;;;;;;;;;;4982860;28;20043;-61
2023/05/16 10:41:58;;;;;;;9.48;7.43;;;;;;;;;;4982250;28;20619;-60
2023/05/16 10:44:24;;;;;;;11.23;8.50;;;;;;;;;;4983736;28;20066;-61
2023/05/16 10:46:50;;;;;;;10.77;8.63;;;;;;;;;;4983081;28;20046;-59
2023/05/16 10:49:23;;;;;;;8.90;8.05;;;;;;;;;;4980948;28;20027;-60
2023/05/16 10:52:01;;;;;;;11.32;8.38;;;;;;;;;;4979637;28;20022;-61
2023/05/16 10:54:32;;;;;;;9.57;8.57;;;;;;;;;;4980721;28;20576;-61
2023/05/16 10:57:02;;;;;;;12.25;9.13;;;;;;;;;;4980714;28;20030;-61
2023/05/16 10:59:28;;;;;;;10.93;8.98;;;;;;;;;;4984633;28;20706;-62
2023/05/16 11:01:54;;;;;;;12.02;10.00;;;;;;;;;;4979900;28;20129;-61
2023/05/16 11:04:20;;;;;;;13.02;9.85;;;;;;;;;;4980577;28;20516;-62
2023/05/16 11:06:48;;;;;;;15.05;10.40;;;;;;;;;;4982243;28;20118;-61
2023/05/16 11:09:18;;;;;;;15.00;11.70;;;;;;;;;;4981173;28;20343;-60
2023/05/16 11:11:53;;;;;;;13.55;9.95;;;;;;;;;;4983473;28;20070;-65
2023/05/16 11:14:21;;;;;;;10.65;9.55;;;;;;;;;;4983358;28;20607;-61
2023/05/16 11:17:05;;;;;;;11.85;10.32;;;;;;;;;;4983454;28;20488;-61
2023/05/16 11:19:49;;;;;;;12.23;10.65;;;;;;;;;;4945572;28;20178;-61
2023/05/16 11:22:17;;;;;;;14.18;11.20;;;;;;;;;;4943548;28;20054;-60
2023/05/16 11:24:50;;;;;;;13.57;10.85;;;;;;;;;;4943700;28;20122;-60
2023/05/16 11:27:26;;;;;;;16.48;10.77;;;;;;;;;;4943347;28;20039;-60
2023/05/16 11:29:53;;;;;;;13.77;10.95;;;;;;;;;;4943360;28;20045;-59
2023/05/16 11:32:20;;;;;;;11.57;10.38;;;;;;;;;;4943046;28;20071;-61
2023/05/16 11:34:47;;;;;;;14.70;11.88;;;;;;;;;;4943712;28;20035;-59
2023/05/16 11:37:12;;;;;;;11.57;10.38;;;;;;;;;;4946951;28;20142;-60
2023/05/16 11:39:38;;;;;;;11.32;10.23;;;;;;;;;;4944034;28;20403;-59
2023/05/16 11:42:04;;;;;;;12.63;10.07;;;;;;;;;;4945393;28;20067;-60
2023/05/16 11:44:29;;;;;;;15.98;11.95;;;;;;;;;;4942527;28;20039;-61
2023/05/16 11:46:55;;;;;;;12.32;10.73;;;;;;;;;;4941479;28;20038;-61
2023/05/16 11:49:20;;;;;;;12.98;10.65;;;;;;;;;;4942236;28;20561;-61
2023/05/16 11:51:46;;;;;;;10.38;9.30;;;;;;;;;;4941399;28;20491;-61
2023/05/16 11:54:12;;;;;;;12.63;9.40;;;;;;;;;;4941126;28;20502;-61
2023/05/16 11:56:38;;;;;;;15.07;13.13;;;;;;;;;;4947080;28;20035;-61
2023/05/16 11:59:03;;;;;;;25.17;17.20;;;;;;;;;;4942043;28;20063;-61
2023/05/16 12:01:33;;;;;;;24.27;17.63;;;;;;;;;;4940855;28;20047;-61
2023/05/16 12:03:58;;;;;;;17.25;12.52;;;;;;;;;;4943334;28;20028;-60
2023/05/16 12:06:25;;;;;;;15.55;11.55;;;;;;;;;;4944325;28;20083;-60
2023/05/16 12:08:50;;;;;;;20.58;12.85;;;;;;;;;;4943459;28;20146;-60
2023/05/16 12:11:16;;;;;;;20.00;13.77;;;;;;;;;;4941295;28;20479;-60
2023/05/16 12:13:41;;;;;;;15.52;13.27;;;;;;;;;;4942469;28;20023;-59
2023/05/16 12:16:07;;;;;;;14.45;10.82;;;;;;;;;;4940287;28;20130;-61
2023/05/16 12:18:33;;;;;;;18.00;13.02;;;;;;;;;;4968784;28;20058;-62
2023/05/16 12:20:58;;;;;;;16.45;12.63;;;;;;;;;;4979228;28;20034;-60
2023/05/16 12:23:25;;;;;;;16.92;14.23;;;;;;;;;;4982963;28;20041;-61
2023/05/16 12:25:54;;;;;;;15.30;11.98;;;;;;;;;;4981464;28;20039;-61
2023/05/16 12:28:20;;;;;;;14.07;11.40;;;;;;;;;;4982758;28;20178;-62
2023/05/16 12:30:46;;;;;;;12.18;10.98;;;;;;;;;;4977824;28;20034;-59
2023/05/16 12:33:13;;;;;;;14.07;12.27;;;;;;;;;;4978645;28;20084;-60
2023/05/16 12:35:42;;;;;;;13.45;11.85;;;;;;;;;;4979262;28;20118;-61
2023/05/16 12:38:09;;;;;;;18.70;14.80;;;;;;;;;;4977499;28;20091;-61
2023/05/16 12:40:38;;;;;;;13.80;11.52;;;;;;;;;;4976305;28;20109;-60
2023/05/16 12:43:11;;;;;;;13.18;11.15;;;;;;;;;;4980849;28;20029;-61
2023/05/16 12:45:36;;;;;;;12.93;11.60;;;;;;;;;;4979880;28;20041;-61
2023/05/16 12:48:10;;;;;;;10.70;9.70;;;;;;;;;;4981008;28;20533;-62
2023/05/16 12:50:37;;;;;;;9.85;9.05;;;;;;;;;;4980724;28;20037;-62
2023/05/16 12:53:02;;;;;;;14.48;11.13;;;;;;;;;;4979789;28;20465;-59
2023/05/16 12:55:28;;;;;;;11.75;10.55;;;;;;;;;;4985794;28;20043;-61
2023/05/16 12:57:54;;;;;;;11.00;8.57;;;;;;;;;;4981796;28;20121;-61
2023/05/16 13:00:20;;;;;;;12.23;9.52;;;;;;;;;;4980864;28;20022;-62
2023/05/16 13:02:48;;;;;;;9.82;8.82;;;;;;;;;;4983530;28;20117;-61
2023/05/16 13:05:14;;;;;;;11.52;9.63;;;;;;;;;;4980183;28;20050;-61
2023/05/16 13:07:40;;;;;;;10.40;9.38;;;;;;;;;;4981729;28;20501;-62
2023/05/16 13:10:09;;;;;;;10.35;9.13;;;;;;;;;;4978731;28;20109;-60
2023/05/16 13:12:35;;;;;;;9.40;8.50;;;;;;;;;;4984694;28;20105;-61
2023/05/16 13:15:01;;;;;;;10.45;9.35;;;;;;;;;;4981082;28;20038;-62
2023/05/16 13:17:29;;;;;;;10.15;9.13;;;;;;;;;;4980691;28;20486;-61
2023/05/16 13:19:54;;;;;;;10.23;9.10;;;;;;;;;;4979797;28;20101;-62
2023/05/16 13:22:20;;;;;;;13.48;9.90;;;;;;;;;;4979862;28;20341;-62
2023/05/16 13:24:45;;;;;;;11.73;10.45;;;;;;;;;;4981448;28;20483;-62
2023/05/16 13:27:15;;;;;;;10.15;9.18;;;;;;;;;;4979786;28;20069;-61
2023/05/16 13:29:40;;;;;;;13.27;9.45;;;;;;;;;;4981292;28;20034;-59
2023/05/16 13:32:06;;;;;;;10.25;9.07;;;;;;;;;;4980200;28;20057;-60
2023/05/16 13:34:32;;;;;;;10.88;9.57;;;;;;;;;;4981165;28;20108;-60
2023/05/16 13:36:57;;;;;;;9.95;9.05;;;;;;;;;;4980856;28;20065;-61
2023/05/16 13:39:23;;;;;;;12.10;10.73;;;;;;;;;;4980958;28;20119;-61
2023/05/16 13:41:49;;;;;;;11.52;10.05;;;;;;;;;;4980894;28;20115;-60
2023/05/16 13:44:14;;;;;;;13.15;9.43;;;;;;;;;;4985740;28;20058;-60
2023/05/16 13:46:40;;;;;;;12.10;9.82;;;;;;;;;;4985650;28;20035;-62
2023/05/16 13:49:05;;;;;;;13.95;10.13;;;;;;;;;;4982577;28;20470;-60
2023/05/16 13:51:31;;;;;;;10.40;9.32;;;;;;;;;;4983162;28;20504;-62
2023/05/16 13:53:57;;;;;;;10.95;9.85;;;;;;;;;;4980782;28;20038;-61
2023/05/16 13:56:22;;;;;;;9.20;8.20;;;;;;;;;;4982819;28;20100;-61
2023/05/16 13:58:49;;;;;;;7.40;6.72;;;;;;;;;;4979934;28;20049;-61
2023/05/16 14:01:14;;;;;;;8.20;7.40;;;;;;;;;;4980315;28;20266;-61
2023/05/16 14:03:40;;;;;;;8.75;7.95;;;;;;;;;;4981666;28;20347;-60
2023/05/16 14:06:05;;;;;;;10.00;9.10;;;;;;;;;;4983453;28;20042;-61
2023/05/16 14:08:31;;;;;;;7.32;6.63;;;;;;;;;;4983135;28;20101;-59
2023/05/16 14:10:56;;;;;;;9.57;7.53;;;;;;;;;;4983178;28;20514;-60
2023/05/16 14:13:22;;;;;;;6.75;6.10;;;;;;;;;;4984308;28;20014;-60
2023/05/16 14:15:47;;;;;;;7.53;6.93;;;;;;;;;;4982052;28;20485;-61
2023/05/16 14:18:13;;;;;;;6.70;6.10;;;;;;;;;;4981362;28;20673;-60
2023/05/16 14:20:38;;;;;;;8.65;6.97;;;;;;;;;;4983373;28;20150;-60
2023/05/16 14:23:04;;;;;;;8.30;7.45;;;;;;;;;;4983914;28;20045;-60
2023/05/16 14:25:29;;;;;;;8.85;7.05;;;;;;;;;;4981096;28;20407;-59
2023/05/16 14:27:55;;;;;;;7.13;6.05;;;;;;;;;;4984291;28;20076;-60
2023/05/16 14:30:20;;;;;;;8.70;6.63;;;;;;;;;;4983393;28;20034;-62
2023/05/16 14:32:46;;;;;;;7.20;6.63;;;;;;;;;;4982394;28;20121;-60